Time;durP1;ratioP1;P1;durP2;ratioP2;P2;SDS_P1;SDS_P2;PMS_P1;PMS_P2;Temp;Humidity;BMP_temperature;BMP_pressure;BME280_temperature;BME280_humidity;BME280_pressure;Samples;Min_cycle;Max_cycle;Signal;HPM_P1;HPM_P2
2023/10/31 00:03:40;;;;;;;44.40;25.10;;;;;10.30;99252.00;;;;10339805;28;20302;-73
2023/10/31 00:08:41;;;;;;;46.13;23.80;;;;;10.30;99251.00;;;;10341496;28;20621;-73
2023/10/31 00:13:42;;;;;;;34.00;20.73;;;;;10.20;99253.00;;;;10338721;28;20223;-71
2023/10/31 00:18:43;;;;;;;37.20;20.90;;;;;10.30;99254.00;;;;10357044;28;20306;-71
2023/10/31 00:23:48;;;;;;;33.93;19.50;;;;;10.30;99263.00;;;;10343898;28;20278;-71
2023/10/31 00:28:49;;;;;;;30.10;16.33;;;;;10.30;99258.00;;;;10350605;28;20232;-74
2023/10/31 00:33:50;;;;;;;29.70;16.47;;;;;10.30;99269.00;;;;10352688;28;20812;-71
2023/10/31 00:38:52;;;;;;;26.60;15.17;;;;;10.30;99276.00;;;;10331681;28;20227;-72
2023/10/31 00:43:53;;;;;;;28.47;15.33;;;;;10.30;99278.00;;;;10340915;28;20897;-71
2023/10/31 00:48:54;;;;;;;26.53;16.37;;;;;10.30;99285.00;;;;10330611;28;20230;-72
2023/10/31 00:53:57;;;;;;;20.93;13.87;;;;;10.30;99289.00;;;;10358187;28;20238;-72
2023/10/31 00:58:58;;;;;;;25.37;14.97;;;;;10.30;99289.00;;;;10348049;28;20223;-72
2023/10/31 01:03:59;;;;;;;20.30;14.43;;;;;10.30;99297.00;;;;10347670;28;20737;-72
2023/10/31 01:09:01;;;;;;;22.27;12.93;;;;;10.30;99304.00;;;;10335962;28;20223;-72
2023/10/31 01:14:03;;;;;;;18.63;14.07;;;;;10.30;99304.00;;;;10350321;28;20294;-71
2023/10/31 01:19:04;;;;;;;22.30;14.57;;;;;10.30;99304.00;;;;10353511;28;20222;-71
2023/10/31 01:24:06;;;;;;;18.10;13.27;;;;;10.30;99307.00;;;;10350645;28;20230;-73
2023/10/31 01:29:07;;;;;;;19.03;13.00;;;;;10.20;99300.00;;;;10346402;28;20211;-73
2023/10/31 01:34:08;;;;;;;19.13;13.33;;;;;10.10;99291.00;;;;10352821;28;20227;-73
2023/10/31 01:39:10;;;;;;;14.90;11.80;;;;;10.00;99309.00;;;;10354320;28;20230;-73
2023/10/31 01:44:11;;;;;;;13.73;11.70;;;;;10.00;99313.00;;;;10340084;28;20307;-74
2023/10/31 01:49:13;;;;;;;18.43;11.00;;;;;10.00;99323.00;;;;10316993;28;20247;-73
2023/10/31 01:54:15;;;;;;;18.30;11.93;;;;;9.90;99326.00;;;;10313811;28;20234;-74
2023/10/31 01:59:16;;;;;;;19.40;12.97;;;;;9.90;99333.00;;;;10341526;28;20895;-74
2023/10/31 02:04:17;;;;;;;20.70;13.07;;;;;9.90;99338.00;;;;10329784;28;20254;-73
2023/10/31 02:09:18;;;;;;;22.17;13.37;;;;;10.00;99339.00;;;;10349087;28;20311;-73
2023/10/31 02:14:21;;;;;;;18.13;12.93;;;;;9.90;99342.00;;;;10353338;28;20894;-74
2023/10/31 02:19:23;;;;;;;20.37;13.13;;;;;9.90;99339.00;;;;10346124;28;20269;-74
2023/10/31 02:24:24;;;;;;;17.30;12.63;;;;;10.00;99337.00;;;;10349079;28;20220;-73
2023/10/31 02:29:25;;;;;;;20.73;13.73;;;;;10.00;99330.00;;;;10350179;28;20234;-73
2023/10/31 02:34:26;;;;;;;21.77;12.90;;;;;10.00;99326.00;;;;10346159;28;20742;-75
2023/10/31 02:39:27;;;;;;;21.43;12.93;;;;;10.00;99347.00;;;;10343962;28;20620;-75
2023/10/31 02:44:28;;;;;;;19.73;13.40;;;;;10.00;99342.00;;;;10343280;28;20688;-74
2023/10/31 02:49:30;;;;;;;22.50;13.87;;;;;9.90;99351.00;;;;10341827;28;20259;-75
2023/10/31 02:54:31;;;;;;;22.40;14.40;;;;;9.90;99365.00;;;;10345554;28;20697;-75
2023/10/31 02:59:32;;;;;;;24.33;15.57;;;;;10.00;99374.00;;;;10364425;28;20219;-75
2023/10/31 03:04:33;;;;;;;20.43;13.40;;;;;9.90;99380.00;;;;10348285;28;20399;-75
2023/10/31 03:09:34;;;;;;;19.73;13.37;;;;;9.90;99386.00;;;;10347635;28;20270;-75
2023/10/31 03:14:36;;;;;;;17.97;12.63;;;;;9.90;99388.00;;;;10327678;28;20230;-75
2023/10/31 03:19:37;;;;;;;19.73;13.10;;;;;9.90;99386.00;;;;10338106;28;20227;-74
2023/10/31 03:24:38;;;;;;;17.70;12.60;;;;;9.90;99382.00;;;;10339348;28;20235;-74
2023/10/31 03:29:40;;;;;;;22.83;15.03;;;;;9.80;99390.00;;;;10339308;28;20299;-74
2023/10/31 03:34:41;;;;;;;23.27;14.80;;;;;9.70;99403.00;;;;10367770;28;20319;-75
2023/10/31 03:39:42;;;;;;;20.50;14.70;;;;;9.60;99406.00;;;;10342318;28;20219;-75
2023/10/31 03:44:43;;;;;;;20.40;15.27;;;;;9.40;99401.00;;;;10344753;28;20322;-71
2023/10/31 03:49:45;;;;;;;17.77;14.47;;;;;9.30;99421.00;;;;10353195;28;20227;-74
2023/10/31 03:54:46;;;;;;;21.63;14.73;;;;;9.20;99436.00;;;;10336775;28;20219;-70
2023/10/31 03:59:47;;;;;;;19.37;13.50;;;;;9.10;99442.00;;;;10355522;28;20900;-71
2023/10/31 04:04:48;;;;;;;21.33;14.10;;;;;9.00;99449.00;;;;10350557;28;20265;-71
2023/10/31 04:09:50;;;;;;;22.67;14.07;;;;;8.90;99451.00;;;;10353298;28;20865;-70
2023/10/31 04:14:51;;;;;;;21.53;14.40;;;;;8.90;99457.00;;;;10345540;28;20297;-71
2023/10/31 04:19:52;;;;;;;23.87;15.57;;;;;8.90;99464.00;;;;10348172;28;20247;-71
2023/10/31 04:24:53;;;;;;;22.57;16.47;;;;;8.90;99457.00;;;;10350639;28;20290;-71
2023/10/31 04:29:54;;;;;;;26.73;15.80;;;;;8.90;99459.00;;;;10346113;28;20887;-70
2023/10/31 04:34:55;;;;;;;23.07;17.07;;;;;8.90;99466.00;;;;10350615;28;20219;-73
2023/10/31 04:39:57;;;;;;;24.93;15.73;;;;;8.80;99467.00;;;;10347250;28;20223;-71
2023/10/31 04:44:58;;;;;;;24.33;16.93;;;;;8.80;99468.00;;;;10348558;28;20231;-71
2023/10/31 04:49:59;;;;;;;25.87;16.47;;;;;8.80;99491.00;;;;10354591;28;20293;-72
2023/10/31 04:55:00;;;;;;;27.40;17.60;;;;;8.70;99481.00;;;;10353077;28;20219;-73
2023/10/31 05:00:05;;;;;;;25.47;16.83;;;;;8.70;99487.00;;;;10353198;28;20219;-73
2023/10/31 05:05:06;;;;;;;24.97;15.83;;;;;8.70;99490.00;;;;10348060;28;20231;-73
2023/10/31 05:10:08;;;;;;;28.10;17.23;;;;;8.70;99498.00;;;;10348476;28;20311;-74
2023/10/31 05:15:10;;;;;;;32.63;18.00;;;;;8.80;99511.00;;;;10354784;28;20223;-73
2023/10/31 05:20:11;;;;;;;30.80;18.77;;;;;8.90;99504.00;;;;10354455;28;20223;-73
2023/10/31 05:25:12;;;;;;;39.93;18.77;;;;;9.00;99526.00;;;;10348513;28;20774;-73
2023/10/31 05:30:14;;;;;;;32.53;19.27;;;;;9.00;99523.00;;;;10345482;28;20309;-74
2023/10/31 05:35:15;;;;;;;34.30;21.00;;;;;9.10;99532.00;;;;10326279;28;20230;-73
2023/10/31 05:40:17;;;;;;;35.37;19.90;;;;;9.10;99530.00;;;;10348896;28;20227;-73
2023/10/31 05:45:18;;;;;;;39.70;21.23;;;;;9.10;99537.00;;;;10352082;28;20227;-74
2023/10/31 05:50:19;;;;;;;30.10;19.50;;;;;9.00;99547.00;;;;10361841;28;20296;-73
2023/10/31 05:55:21;;;;;;;31.23;19.73;;;;;9.00;99555.00;;;;10347261;28;20231;-73
2023/10/31 06:00:22;;;;;;;29.30;18.87;;;;;8.90;99565.00;;;;10337445;28;20234;-73
2023/10/31 06:05:23;;;;;;;28.70;18.60;;;;;8.90;99573.00;;;;10333629;28;20740;-70
2023/10/31 06:10:24;;;;;;;32.60;18.93;;;;;8.90;99582.00;;;;10344091;28;20221;-70
2023/10/31 06:15:25;;;;;;;31.07;19.90;;;;;8.90;99569.00;;;;10344506;28;20282;-70
2023/10/31 06:20:26;;;;;;;34.83;20.13;;;;;8.90;99578.00;;;;10339952;28;20772;-71
2023/10/31 06:25:27;;;;;;;36.13;20.20;;;;;8.80;99579.00;;;;10358831;28;20232;-71
2023/10/31 06:30:28;;;;;;;30.30;20.17;;;;;8.80;99582.00;;;;10341674;28;20285;-70
2023/10/31 06:35:30;;;;;;;38.13;21.23;;;;;8.80;99587.00;;;;10338065;28;20227;-70
2023/10/31 06:40:31;;;;;;;30.80;19.20;;;;;8.90;99595.00;;;;10353886;28;20223;-69
2023/10/31 06:45:38;;;;;;;29.93;18.70;;;;;8.90;99601.00;;;;10342180;28;20322;-69
2023/10/31 06:50:39;;;;;;;28.37;17.07;;;;;8.90;99597.00;;;;10338181;28;20219;-71
2023/10/31 06:55:40;;;;;;;31.30;18.53;;;;;9.10;99600.00;;;;10322718;28;20250;-69
2023/10/31 07:00:41;;;;;;;25.57;17.13;;;;;9.20;99611.00;;;;10336471;28;20219;-69
2023/10/31 07:05:42;;;;;;;28.43;17.83;;;;;9.30;99613.00;;;;10340140;28;20221;-70
2023/10/31 07:10:43;;;;;;;29.20;18.37;;;;;9.60;99615.00;;;;10338314;28;20227;-71
2023/10/31 07:15:45;;;;;;;23.47;15.17;;;;;9.60;99621.00;;;;10341756;28;20235;-71
2023/10/31 07:20:46;;;;;;;31.67;16.73;;;;;9.70;99629.00;;;;10346279;28;20227;-71
2023/10/31 07:25:47;;;;;;;26.93;16.13;;;;;9.80;99627.00;;;;10347295;28;20325;-72
2023/10/31 07:30:50;;;;;;;29.63;16.87;;;;;9.80;99631.00;;;;10347850;28;20707;-71
2023/10/31 07:35:51;;;;;;;29.00;16.27;;;;;9.80;99637.00;;;;10332046;28;20227;-71
2023/10/31 07:40:52;;;;;;;25.57;14.17;;;;;9.90;99647.00;;;;10349874;28;20332;-71
2023/10/31 07:45:56;;;;;;;24.00;14.97;;;;;10.00;99657.00;;;;10326435;28;20215;-70
2023/10/31 07:50:57;;;;;;;23.60;14.93;;;;;10.20;99654.00;;;;10343861;28;20270;-72
2023/10/31 07:55:58;;;;;;;21.77;13.77;;;;;10.60;99662.00;;;;10351296;28;20231;-71
2023/10/31 08:00:59;;;;;;;22.13;14.57;;;;;10.90;99664.00;;;;10347014;28;20231;-71
2023/10/31 08:06:00;;;;;;;22.90;15.13;;;;;11.10;99658.00;;;;10345476;28;20289;-71
2023/10/31 08:11:02;;;;;;;19.33;14.13;;;;;11.10;99666.00;;;;10347017;28;20223;-72
2023/10/31 08:16:07;;;;;;;18.80;14.93;;;;;11.30;99661.00;;;;10336598;28;20587;-70
2023/10/31 08:21:08;;;;;;;16.67;13.53;;;;;11.40;99663.00;;;;10340977;28;20237;-72
2023/10/31 08:26:09;;;;;;;19.45;14.55;;;;;11.80;99657.00;;;;10345944;28;20978;-70
2023/10/31 08:31:10;;;;;;;15.40;11.87;;;;;11.70;99663.00;;;;10345007;28;20236;-70
2023/10/31 08:36:11;;;;;;;15.95;12.23;;;;;11.50;99667.00;;;;10346583;28;20305;-70
2023/10/31 08:41:18;;;;;;;15.05;10.55;;;;;11.40;99670.00;;;;10343603;28;20235;-70
2023/10/31 08:46:19;;;;;;;14.35;10.15;;;;;11.40;99672.00;;;;10340693;28;20247;-72
2023/10/31 08:51:23;;;;;;;12.13;10.73;;;;;11.40;99691.00;;;;10346817;28;20239;-70
2023/10/31 08:56:24;;;;;;;11.10;9.60;;;;;11.40;99689.00;;;;10345827;28;20214;-70
2023/10/31 09:01:26;;;;;;;12.65;10.05;;;;;11.80;99689.00;;;;10341558;28;20310;-71
2023/10/31 09:06:27;;;;;;;15.70;11.23;;;;;12.30;99704.00;;;;10343490;28;20253;-71
2023/10/31 09:11:28;;;;;;;12.95;9.40;;;;;12.40;99699.00;;;;10341948;28;20737;-71
2023/10/31 09:16:30;;;;;;;14.82;10.80;;;;;13.00;99711.00;;;;10337537;28;20738;-71
2023/10/31 09:21:31;;;;;;;11.93;8.38;;;;;13.50;99717.00;;;;10324120;28;20586;-70
2023/10/31 09:26:32;;;;;;;11.73;7.70;;;;;13.90;99716.00;;;;10349776;28;20231;-70
2023/10/31 09:31:33;;;;;;;12.10;7.05;;;;;14.10;99712.00;;;;10322182;28;20278;-72
2023/10/31 09:36:35;;;;;;;11.65;6.97;;;;;14.30;99722.00;;;;10330715;28;20229;-73
2023/10/31 09:41:36;;;;;;;12.60;5.53;;;;;14.70;99734.00;;;;10342719;28;20420;-72
2023/10/31 09:46:40;;;;;;;7.93;5.18;;;;;14.90;99739.00;;;;10341413;28;20282;-72
2023/10/31 09:51:41;;;;;;;13.75;5.25;;;;;14.60;99747.00;;;;10343059;28;20226;-73
2023/10/31 09:56:43;;;;;;;8.20;5.53;;;;;14.60;99747.00;;;;10341274;28;20222;-73
2023/10/31 10:01:44;;;;;;;9.85;5.28;;;;;14.40;99756.00;;;;10341396;28;20215;-72
2023/10/31 10:07:01;;;;;;;8.93;4.47;;;;;14.40;99762.00;;;;10323816;28;20239;-72
2023/10/31 10:12:05;;;;;;;10.05;4.70;;;;;14.60;99778.00;;;;10342395;28;20277;-72
2023/10/31 10:17:18;;;;;;;6.88;4.57;;;;;14.40;99789.00;;;;10337710;28;20231;-73
2023/10/31 10:22:20;;;;;;;14.30;5.07;;;;;14.30;99792.00;;;;10344532;28;20226;-72
2023/10/31 10:27:21;;;;;;;7.32;5.05;;;;;14.00;99793.00;;;;10342952;28;20902;-72
2023/10/31 10:32:22;;;;;;;10.43;4.95;;;;;14.10;99801.00;;;;10342445;28;20237;-73
2023/10/31 10:37:27;;;;;;;12.57;5.68;;;;;14.30;99800.00;;;;10341826;28;20915;-73
2023/10/31 10:42:45;;;;;;;11.80;5.18;;;;;14.10;99819.00;;;;10351313;28;20311;-71
2023/10/31 10:47:49;;;;;;;13.73;5.95;;;;;13.70;99809.00;;;;10337263;28;20227;-71
2023/10/31 10:53:25;;;;;;;12.07;7.00;;;;;13.70;99804.00;;;;10335852;28;20243;-72
2023/10/31 10:58:53;;;;;;;16.17;5.50;;;;;14.00;99826.00;;;;10327576;28;20234;-71
2023/10/31 11:03:55;;;;;;;12.40;5.70;;;;;14.30;99818.00;;;;10330908;28;20782;-71
2023/10/31 11:08:58;;;;;;;17.33;7.32;;;;;14.40;99825.00;;;;10305177;28;20252;-71
2023/10/31 11:14:01;;;;;;;10.30;6.07;;;;;14.40;99825.00;;;;10308269;28;20219;-71
2023/10/31 11:19:03;;;;;;;10.00;5.97;;;;;14.30;99823.00;;;;10296648;28;20781;-72
2023/10/31 11:24:04;;;;;;;11.15;6.28;;;;;14.10;99821.00;;;;10319024;28;20368;-72
2023/10/31 11:29:06;;;;;;;14.45;8.05;;;;;13.80;99811.00;;;;10305077;28;20223;-71
2023/10/31 11:34:08;;;;;;;17.20;9.32;;;;;13.40;99812.00;;;;10302042;28;20256;-71
2023/10/31 11:39:18;;;;;;;12.93;9.55;;;;;13.30;99813.00;;;;10295779;28;20224;-71
2023/10/31 11:44:22;;;;;;;14.60;9.40;;;;;13.50;99803.00;;;;10295263;28;20223;-71
2023/10/31 11:49:48;;;;;;;16.30;8.70;;;;;13.60;99812.00;;;;10302503;28;20223;-72
2023/10/31 11:54:49;;;;;;;14.05;8.38;;;;;13.40;99810.00;;;;10284291;28;20311;-72
2023/10/31 11:59:50;;;;;;;14.32;9.27;;;;;13.00;99807.00;;;;10304604;28;20879;-72
2023/10/31 12:05:06;;;;;;;14.75;7.55;;;;;12.60;99811.00;;;;10279491;28;20999;-72
2023/10/31 12:10:08;;;;;;;17.48;8.05;;;;;12.30;99803.00;;;;10309598;28;20223;-71
2023/10/31 12:15:09;;;;;;;13.40;7.88;;;;;12.20;99803.00;;;;10294476;28;20224;-72
2023/10/31 12:20:11;;;;;;;11.68;6.68;;;;;12.40;99808.00;;;;10304635;28;20241;-72
2023/10/31 12:25:12;;;;;;;13.75;7.18;;;;;12.60;99812.00;;;;10302589;28;20266;-72
2023/10/31 12:30:15;;;;;;;7.40;5.15;;;;;12.50;99819.00;;;;10309856;28;20834;-72
2023/10/31 12:35:21;;;;;;;7.63;4.50;;;;;12.10;99823.00;;;;10297479;28;20239;-72
2023/10/31 12:40:23;;;;;;;8.32;4.82;;;;;11.80;99819.00;;;;10311802;28;20975;-72
2023/10/31 12:45:24;;;;;;;8.95;5.35;;;;;11.60;99813.00;;;;10311640;28;20269;-73
2023/10/31 12:50:25;;;;;;;6.22;4.53;;;;;11.60;99811.00;;;;10286661;28;20220;-72
2023/10/31 12:55:30;;;;;;;8.57;4.88;;;;;11.70;99825.00;;;;10304227;28;20863;-73
2023/10/31 13:00:33;;;;;;;7.10;4.47;;;;;12.00;99823.00;;;;10302645;28;20315;-72
2023/10/31 13:05:36;;;;;;;8.48;3.90;;;;;11.90;99835.00;;;;10316035;28;20233;-73
2023/10/31 13:10:39;;;;;;;9.73;4.38;;;;;11.90;99833.00;;;;10316518;28;20219;-73
2023/10/31 13:15:40;;;;;;;8.65;3.80;;;;;12.00;99827.00;;;;10300252;28;20216;-72
2023/10/31 13:20:41;;;;;;;5.60;3.80;;;;;12.20;99842.00;;;;10317889;28;20816;-72
2023/10/31 13:25:42;;;;;;;3.75;3.35;;;;;12.00;99833.00;;;;10313887;28;20890;-73
2023/10/31 13:30:43;;;;;;;3.70;2.88;;;;;12.00;99840.00;;;;10304656;28;20760;-72
2023/10/31 13:35:44;;;;;;;5.07;3.22;;;;;11.90;99840.00;;;;10311526;28;20781;-73
2023/10/31 13:40:46;;;;;;;4.30;3.00;;;;;11.70;99851.00;;;;10311499;28;20219;-73
2023/10/31 13:45:47;;;;;;;5.68;3.53;;;;;11.80;99848.00;;;;10313007;28;20788;-73
2023/10/31 13:50:49;;;;;;;7.18;4.60;;;;;12.20;99855.00;;;;10311052;28;20238;-73
2023/10/31 13:55:50;;;;;;;7.95;5.40;;;;;12.20;99857.00;;;;10311677;28;20225;-72
2023/10/31 14:00:51;;;;;;;9.20;5.55;;;;;12.40;99864.00;;;;10312183;28;20363;-73
2023/10/31 14:05:53;;;;;;;9.68;5.75;;;;;12.50;99857.00;;;;10303698;28;20233;-73
2023/10/31 14:10:54;;;;;;;10.48;7.28;;;;;13.60;99854.00;;;;10319178;28;20326;-74
2023/10/31 14:15:55;;;;;;;7.93;6.07;;;;;13.70;99861.00;;;;10312891;28;20228;-73
2023/10/31 14:20:56;;;;;;;8.63;5.10;;;;;13.40;99854.00;;;;10311522;28;20311;-73
2023/10/31 14:25:57;;;;;;;10.50;6.13;;;;;13.00;99861.00;;;;10324342;28;20226;-73
2023/10/31 14:30:59;;;;;;;10.95;5.53;;;;;12.90;99850.00;;;;10301967;28;20270;-73
2023/10/31 14:36:00;;;;;;;9.15;5.03;;;;;12.80;99848.00;;;;10312641;28;20227;-74
2023/10/31 14:41:01;;;;;;;11.25;5.05;;;;;12.40;99848.00;;;;10328414;28;20306;-75
2023/10/31 14:46:03;;;;;;;10.48;5.43;;;;;12.40;99851.00;;;;10306129;28;20232;-74
2023/10/31 14:51:04;;;;;;;10.18;5.40;;;;;12.20;99847.00;;;;10315769;28;20251;-75
2023/10/31 14:56:06;;;;;;;10.13;6.13;;;;;12.10;99843.00;;;;10306546;28;20219;-75
2023/10/31 15:01:07;;;;;;;9.93;5.60;;;;;12.10;99851.00;;;;10309193;28;20228;-75
2023/10/31 15:06:09;;;;;;;7.88;4.45;;;;;12.10;99856.00;;;;10308055;28;20228;-75
2023/10/31 15:11:10;;;;;;;11.77;5.43;;;;;12.00;99855.00;;;;10270221;28;20721;-74
2023/10/31 15:16:11;;;;;;;8.05;5.10;;;;;12.00;99854.00;;;;10315431;28;20219;-74
2023/10/31 15:21:12;;;;;;;7.90;4.90;;;;;12.00;99858.00;;;;10304429;28;20224;-74
2023/10/31 15:26:14;;;;;;;7.50;5.25;;;;;12.00;99850.00;;;;10306329;28;20231;-75
2023/10/31 15:31:15;;;;;;;8.03;5.43;;;;;11.90;99857.00;;;;10323921;28;20219;-75
2023/10/31 15:36:16;;;;;;;12.57;6.15;;;;;12.00;99861.00;;;;10310610;28;20848;-75
2023/10/31 15:41:21;;;;;;;16.23;7.00;;;;;11.80;99854.00;;;;10292853;28;20647;-75
2023/10/31 15:46:22;;;;;;;15.02;6.20;;;;;11.70;99859.00;;;;10316133;28;20260;-73
2023/10/31 15:51:23;;;;;;;12.27;6.78;;;;;11.60;99864.00;;;;10308987;28;20212;-73
2023/10/31 15:56:24;;;;;;;14.97;7.43;;;;;11.50;99879.00;;;;10326473;28;20299;-73
2023/10/31 16:01:25;;;;;;;13.00;7.82;;;;;11.40;99879.00;;;;10310005;28;20739;-73
2023/10/31 16:06:27;;;;;;;14.88;7.82;;;;;11.40;99884.00;;;;10298495;28;20289;-73
2023/10/31 16:11:29;;;;;;;14.10;7.75;;;;;11.40;99889.00;;;;10309255;28;20278;-73
2023/10/31 16:16:30;;;;;;;14.25;7.20;;;;;11.40;99884.00;;;;10291524;28;20319;-72
2023/10/31 16:21:31;;;;;;;13.40;7.23;;;;;11.30;99882.00;;;;10312106;28;20282;-72
2023/10/31 16:26:32;;;;;;;13.32;6.03;;;;;11.30;99887.00;;;;10306915;28;21044;-73
2023/10/31 16:31:33;;;;;;;13.48;6.40;;;;;11.20;99890.00;;;;10327106;28;20228;-73
2023/10/31 16:36:34;;;;;;;12.73;5.97;;;;;11.10;99885.00;;;;10310250;28;20232;-73
2023/10/31 16:41:36;;;;;;;11.50;6.65;;;;;11.10;99896.00;;;;10308162;28;20238;-73
2023/10/31 16:46:44;;;;;;;14.40;6.00;;;;;11.10;99904.00;;;;10308668;28;20327;-73
2023/10/31 16:51:45;;;;;;;18.30;6.20;;;;;11.00;99902.00;;;;10311502;28;20303;-72
2023/10/31 16:56:47;;;;;;;15.10;6.68;;;;;10.90;99892.00;;;;10315449;28;20228;-76
2023/10/31 17:01:48;;;;;;;13.77;7.53;;;;;10.90;99890.00;;;;10310139;28;20966;-76
2023/10/31 17:06:49;;;;;;;13.67;6.10;;;;;10.80;99890.00;;;;10318246;28;20278;-76
2023/10/31 17:11:50;;;;;;;13.33;6.30;;;;;10.80;99902.00;;;;10314827;28;20849;-76
2023/10/31 17:16:52;;;;;;;18.93;6.53;;;;;10.90;99908.00;;;;10315089;28;20220;-75
2023/10/31 17:21:53;;;;;;;13.70;6.07;;;;;11.10;99916.00;;;;10310365;28;20903;-76
2023/10/31 17:26:54;;;;;;;14.10;5.90;;;;;11.30;99909.00;;;;10313109;28;20239;-75
2023/10/31 17:31:55;;;;;;;14.13;5.57;;;;;11.40;99928.00;;;;10312731;28;20251;-76
2023/10/31 17:37:02;;;;;;;13.82;6.53;;;;;11.50;99932.00;;;;10322073;28;20231;-75
2023/10/31 17:42:03;;;;;;;19.83;6.83;;;;;11.50;99924.00;;;;10317627;28;20220;-76
2023/10/31 17:47:05;;;;;;;17.55;7.28;;;;;11.60;99933.00;;;;10314035;28;20243;-76
2023/10/31 17:52:06;;;;;;;11.23;5.97;;;;;11.60;99922.00;;;;10317062;28;20658;-74
2023/10/31 17:57:10;;;;;;;20.00;6.53;;;;;11.60;99939.00;;;;10315699;28;20215;-76
2023/10/31 18:02:11;;;;;;;17.30;6.32;;;;;11.60;99950.00;;;;10308154;28;20220;-72
2023/10/31 18:07:16;;;;;;;18.52;7.07;;;;;11.60;99958.00;;;;10298708;28;20228;-72
2023/10/31 18:12:20;;;;;;;13.32;6.20;;;;;11.50;99965.00;;;;10305005;28;20307;-72
2023/10/31 18:17:21;;;;;;;17.15;6.80;;;;;11.60;99968.00;;;;10272585;28;20224;-73
2023/10/31 18:22:22;;;;;;;16.60;6.57;;;;;11.60;99961.00;;;;10284593;28;20770;-73
2023/10/31 18:27:23;;;;;;;17.70;7.63;;;;;11.60;99968.00;;;;10308484;28;20277;-72
2023/10/31 18:32:24;;;;;;;18.27;7.65;;;;;11.60;99976.00;;;;10312171;28;21046;-73
2023/10/31 18:37:25;;;;;;;22.45;8.27;;;;;11.60;99982.00;;;;10312825;28;20228;-73
2023/10/31 18:42:26;;;;;;;19.30;8.73;;;;;11.60;99970.00;;;;10333959;28;20226;-72
2023/10/31 18:47:28;;;;;;;21.90;8.13;;;;;11.50;99968.00;;;;10314497;28;20228;-73
2023/10/31 18:52:29;;;;;;;22.10;8.77;;;;;11.50;99960.00;;;;10331553;28;20278;-73
2023/10/31 18:57:30;;;;;;;23.55;8.43;;;;;11.50;99965.00;;;;10307229;28;20266;-73
2023/10/31 19:02:32;;;;;;;19.47;8.23;;;;;11.50;99955.00;;;;10291240;28;20231;-73
2023/10/31 19:07:33;;;;;;;20.48;8.63;;;;;11.40;99951.00;;;;10307936;28;20916;-73
2023/10/31 19:12:35;;;;;;;22.83;8.77;;;;;11.30;99954.00;;;;10305257;28;20311;-71
2023/10/31 19:17:36;;;;;;;19.23;8.30;;;;;11.30;99963.00;;;;10308033;28;20335;-71
2023/10/31 19:22:37;;;;;;;23.02;7.25;;;;;11.30;99949.00;;;;10287571;28;20235;-71
2023/10/31 19:27:38;;;;;;;16.13;8.47;;;;;11.20;99956.00;;;;10304463;28;20230;-72
2023/10/31 19:32:39;;;;;;;18.93;8.97;;;;;11.20;99956.00;;;;10311513;28;20318;-71
2023/10/31 19:37:44;;;;;;;17.55;8.38;;;;;11.20;99946.00;;;;10305303;28;20266;-71
2023/10/31 19:42:45;;;;;;;22.60;9.20;;;;;11.20;99945.00;;;;10293890;28;20243;-71
2023/10/31 19:47:47;;;;;;;21.38;7.97;;;;;11.30;99949.00;;;;10305597;28;20254;-71
2023/10/31 19:52:48;;;;;;;17.10;6.97;;;;;11.30;99946.00;;;;10307900;28;20227;-70
2023/10/31 19:57:51;;;;;;;23.07;6.03;;;;;11.40;99966.00;;;;10285837;28;20220;-71
2023/10/31 20:02:52;;;;;;;13.02;5.05;;;;;11.40;99938.00;;;;10306203;28;21051;-70
2023/10/31 20:07:54;;;;;;;14.57;5.03;;;;;11.30;99944.00;;;;10307508;28;20577;-71
2023/10/31 20:12:55;;;;;;;16.87;5.00;;;;;11.40;99947.00;;;;10304703;28;20350;-71
2023/10/31 20:17:57;;;;;;;16.20;4.57;;;;;11.50;99953.00;;;;10310424;28;20220;-71
2023/10/31 20:22:58;;;;;;;10.97;4.33;;;;;11.50;99938.00;;;;10295728;28;20314;-71
2023/10/31 20:28:01;;;;;;;12.35;4.00;;;;;11.50;99949.00;;;;10303734;28;20278;-72
2023/10/31 20:33:02;;;;;;;11.07;3.58;;;;;11.50;99957.00;;;;10293047;28;20335;-71
2023/10/31 20:38:03;;;;;;;10.43;4.00;;;;;11.60;99954.00;;;;10308575;28;20270;-72
2023/10/31 20:43:04;;;;;;;12.47;4.07;;;;;11.60;99950.00;;;;10305658;28;20226;-72
2023/10/31 20:48:05;;;;;;;21.67;4.38;;;;;11.60;99960.00;;;;10307593;28;20319;-71
2023/10/31 20:53:07;;;;;;;8.85;3.63;;;;;11.60;99960.00;;;;10316490;28;20238;-72
2023/10/31 20:58:08;;;;;;;11.20;4.07;;;;;11.60;99952.00;;;;10314957;28;20697;-72
2023/10/31 21:03:11;;;;;;;11.50;3.42;;;;;11.60;99953.00;;;;10312831;28;20225;-72
2023/10/31 21:08:13;;;;;;;8.35;3.03;;;;;11.60;99951.00;;;;10305920;28;20259;-72
2023/10/31 21:13:14;;;;;;;14.95;3.67;;;;;11.60;99946.00;;;;10306304;28;20689;-71
2023/10/31 21:18:15;;;;;;;14.30;3.63;;;;;11.60;99951.00;;;;10308569;28;20224;-72
2023/10/31 21:23:16;;;;;;;10.02;3.15;;;;;11.60;99945.00;;;;10286671;28;20621;-72
2023/10/31 21:28:17;;;;;;;11.02;3.88;;;;;11.70;99950.00;;;;10307371;28;20220;-71
2023/10/31 21:33:23;;;;;;;11.07;4.25;;;;;11.70;99963.00;;;;10303965;28;20232;-71
2023/10/31 21:38:24;;;;;;;10.32;3.42;;;;;11.60;99956.00;;;;10314586;28;20291;-69
2023/10/31 21:43:25;;;;;;;11.25;3.35;;;;;11.60;99950.00;;;;10333301;28;20888;-69
2023/10/31 21:48:26;;;;;;;8.82;3.65;;;;;11.50;99950.00;;;;10325313;28;20243;-71
2023/10/31 21:53:27;;;;;;;11.63;2.97;;;;;11.50;99941.00;;;;10308778;28;21809;-70
2023/10/31 21:58:29;;;;;;;9.48;4.30;;;;;11.40;99944.00;;;;10309496;28;20294;-72
2023/10/31 22:03:30;;;;;;;13.60;3.72;;;;;11.40;99948.00;;;;10292565;28;20220;-69
2023/10/31 22:08:31;;;;;;;12.40;3.67;;;;;11.40;99949.00;;;;10288975;28;20225;-70
2023/10/31 22:13:32;;;;;;;9.43;4.15;;;;;11.40;99946.00;;;;10308053;28;20224;-70
2023/10/31 22:18:33;;;;;;;9.25;3.55;;;;;11.40;99942.00;;;;10307996;28;20672;-70
2023/10/31 22:23:34;;;;;;;10.23;3.78;;;;;11.40;99939.00;;;;10285099;28;20785;-71
2023/10/31 22:28:35;;;;;;;13.90;3.40;;;;;11.40;99938.00;;;;10301947;28;20259;-70
2023/10/31 22:33:36;;;;;;;9.27;3.47;;;;;11.40;99938.00;;;;10310388;28;20223;-70
2023/10/31 22:38:38;;;;;;;13.57;3.90;;;;;11.40;99930.00;;;;10292097;28;20839;-70
2023/10/31 22:43:39;;;;;;;10.95;4.35;;;;;11.40;99924.00;;;;10293703;28;20242;-72
2023/10/31 22:48:42;;;;;;;11.93;3.60;;;;;11.40;99928.00;;;;10313653;28;20773;-72
2023/10/31 22:53:43;;;;;;;9.30;3.50;;;;;11.40;99927.00;;;;10310041;28;20215;-72
2023/10/31 22:58:44;;;;;;;9.05;3.30;;;;;11.40;99917.00;;;;10302961;28;20307;-72
2023/10/31 23:03:46;;;;;;;7.57;3.00;;;;;11.40;99917.00;;;;10314032;28;20300;-72
2023/10/31 23:08:47;;;;;;;8.05;3.13;;;;;11.30;99908.00;;;;10306809;28;20220;-73
2023/10/31 23:13:48;;;;;;;8.77;3.00;;;;;11.30;99907.00;;;;10306262;28;20220;-73
2023/10/31 23:18:49;;;;;;;7.43;3.00;;;;;11.20;99907.00;;;;10308957;28;20220;-72
2023/10/31 23:23:50;;;;;;;9.98;3.50;;;;;11.20;99896.00;;;;10288744;28;20779;-72
2023/10/31 23:28:51;;;;;;;9.57;2.92;;;;;11.20;99885.00;;;;10306106;28;20232;-72
2023/10/31 23:33:52;;;;;;;12.33;3.10;;;;;11.20;99880.00;;;;10310979;28;20251;-72
2023/10/31 23:38:53;;;;;;;5.75;2.40;;;;;11.20;99880.00;;;;10311927;28;20305;-72
2023/10/31 23:43:55;;;;;;;10.83;2.60;;;;;11.10;99882.00;;;;10316557;28;20225;-72
2023/10/31 23:48:56;;;;;;;9.13;2.33;;;;;11.10;99870.00;;;;10316642;28;20242;-72
2023/10/31 23:53:58;;;;;;;3.88;1.70;;;;;11.10;99867.00;;;;10307195;28;20751;-72
2023/10/31 23:58:59;;;;;;;6.72;1.75;;;;;11.10;99847.00;;;;10310038;28;20232;-73
